Time;durP1;ratioP1;P1;durP2;ratioP2;P2;SDS_P1;SDS_P2;PMS_P1;PMS_P2;Temp;Humidity;BMP_temperature;BMP_pressure;BME280_temperature;BME280_humidity;BME280_pressure;Samples;Min_cycle;Max_cycle;Signal;HPM_P1;HPM_P2
2023/04/06 00:00:27;;;;;;;16.80;10.40;;;0.70;1.00;;;;;;4903295;29;20204;-94
2023/04/06 00:02:54;;;;;;;15.87;10.63;;;0.70;1.00;;;;;;4903157;29;20218;-95
2023/04/06 00:05:21;;;;;;;16.10;10.13;;;0.70;1.00;;;;;;4903437;29;20269;-95
2023/04/06 00:07:49;;;;;;;22.13;12.60;;;0.70;1.00;;;;;;4903210;29;20198;-94
2023/04/06 00:10:16;;;;;;;15.90;10.00;;;0.70;1.00;;;;;;4884090;29;20706;-95
2023/04/06 00:12:43;;;;;;;18.43;10.20;;;0.70;1.00;;;;;;4884117;29;20224;-94
2023/04/06 00:15:11;;;;;;;16.53;8.83;;;0.60;1.00;;;;;;4898695;29;20202;-95
2023/04/06 00:17:38;;;;;;;18.40;10.03;;;0.60;1.00;;;;;;4902640;29;20241;-94
2023/04/06 00:20:06;;;;;;;17.30;10.07;;;0.60;1.00;;;;;;4902425;29;20200;-95
2023/04/06 00:22:33;;;;;;;15.07;9.17;;;0.50;1.00;;;;;;4902749;29;20237;-94
2023/04/06 00:25:01;;;;;;;18.93;11.43;;;0.50;1.00;;;;;;4902930;29;20202;-94
2023/04/06 00:27:28;;;;;;;16.47;8.40;;;0.50;1.00;;;;;;4902603;29;20284;-95
2023/04/06 00:29:54;;;;;;;17.23;8.63;;;0.50;1.00;;;;;;4902693;29;20212;-96
2023/04/06 00:32:21;;;;;;;15.77;9.23;;;0.40;1.00;;;;;;4902512;29;20205;-95
2023/04/06 00:34:48;;;;;;;20.67;8.80;;;0.40;1.00;;;;;;4902570;29;20202;-94
2023/04/06 00:37:15;;;;;;;16.17;9.00;;;0.40;1.00;;;;;;4902406;29;20213;-96
2023/04/06 00:39:42;;;;;;;15.67;9.07;;;0.40;1.00;;;;;;4902181;29;20198;-95
2023/04/06 00:42:13;;;;;;;17.63;9.13;;;0.40;1.00;;;;;;4902307;29;20580;-95
2023/04/06 00:44:40;;;;;;;17.77;8.93;;;0.30;1.00;;;;;;4902276;29;20210;-94
2023/04/06 00:47:07;;;;;;;17.90;8.80;;;0.30;1.00;;;;;;4883388;29;20195;-95
2023/04/06 00:49:34;;;;;;;15.57;9.10;;;0.30;1.00;;;;;;4883387;29;20206;-96
2023/04/06 00:52:01;;;;;;;18.10;8.90;;;0.30;1.00;;;;;;4901313;29;20201;-95
2023/04/06 00:54:28;;;;;;;16.00;8.63;;;0.20;1.00;;;;;;4901721;29;20213;-95
2023/04/06 00:56:55;;;;;;;17.63;10.17;;;0.20;1.00;;;;;;4902271;29;20562;-95
2023/04/06 00:59:23;;;;;;;19.00;11.20;;;0.20;1.00;;;;;;4902423;29;20194;-96
2023/04/06 01:01:50;;;;;;;19.13;10.47;;;0.20;1.00;;;;;;4901868;29;20232;-94
2023/04/06 01:04:17;;;;;;;16.80;10.10;;;0.20;1.00;;;;;;4901895;29;20294;-95
2023/04/06 01:06:43;;;;;;;20.17;10.77;;;0.20;1.00;;;;;;4902011;29;20284;-94
2023/04/06 01:09:10;;;;;;;15.83;9.33;;;0.20;1.00;;;;;;4901844;29;20265;-94
2023/04/06 01:11:37;;;;;;;20.93;11.20;;;0.10;1.00;;;;;;4901855;29;20206;-94
2023/04/06 01:14:04;;;;;;;15.80;8.87;;;0.10;1.00;;;;;;4901341;29;20194;-96
2023/04/06 01:16:33;;;;;;;16.07;9.33;;;0.20;1.00;;;;;;4887456;29;20699;-94
2023/04/06 01:18:59;;;;;;;17.40;10.03;;;0.20;1.00;;;;;;4900603;29;20579;-94
2023/04/06 01:21:26;;;;;;;22.73;11.73;;;0.20;1.00;;;;;;4901744;29;20229;-96
2023/04/06 01:23:55;;;;;;;18.83;8.70;;;0.30;1.00;;;;;;4901689;29;20213;-95
2023/04/06 01:26:21;;;;;;;19.00;8.90;;;0.30;1.00;;;;;;4901633;29;20206;-94
2023/04/06 01:28:48;;;;;;;15.47;9.17;;;0.30;1.00;;;;;;4901665;29;20197;-93
2023/04/06 01:31:15;;;;;;;16.73;9.03;;;0.40;1.00;;;;;;4901580;29;20205;-95
2023/04/06 01:33:42;;;;;;;14.27;8.30;;;0.40;1.00;;;;;;4901498;29;20199;-95
2023/04/06 01:36:09;;;;;;;18.53;8.63;;;0.50;1.00;;;;;;4901120;29;20286;-95
2023/04/06 01:38:36;;;;;;;18.13;9.97;;;0.50;1.00;;;;;;4901487;29;20288;-96
2023/04/06 01:41:04;;;;;;;17.27;8.63;;;0.50;1.00;;;;;;4901143;29;20204;-96
2023/04/06 01:43:31;;;;;;;14.10;8.67;;;0.50;1.00;;;;;;4901229;29;20248;-96
2023/04/06 01:45:58;;;;;;;17.97;9.50;;;0.50;1.00;;;;;;4901174;29;20209;-94
2023/04/06 01:48:24;;;;;;;16.43;9.10;;;0.40;1.00;;;;;;4900839;29;20205;-95
2023/04/06 01:50:51;;;;;;;19.17;10.27;;;0.40;1.00;;;;;;4901327;29;20198;-96
2023/04/06 01:53:18;;;;;;;16.47;9.87;;;0.40;1.00;;;;;;4901507;29;20289;-95
2023/04/06 01:55:45;;;;;;;16.47;9.00;;;0.40;1.00;;;;;;4900873;29;20288;-95
2023/04/06 01:58:13;;;;;;;17.83;8.53;;;0.40;1.00;;;;;;4901216;29;20229;-94
2023/04/06 02:00:40;;;;;;;18.20;9.30;;;0.30;1.00;;;;;;4900785;29;20679;-96
2023/04/06 02:03:07;;;;;;;17.10;9.73;;;0.30;1.00;;;;;;4900654;29;20229;-95
2023/04/06 02:05:37;;;;;;;14.60;9.47;;;0.30;1.00;;;;;;4900826;29;20218;-94
2023/04/06 02:08:04;;;;;;;17.73;9.40;;;0.30;1.00;;;;;;4901258;29;20302;-94
2023/04/06 02:10:31;;;;;;;17.33;10.10;;;0.20;1.00;;;;;;4900499;29;20204;-95
2023/04/06 02:12:58;;;;;;;18.13;9.53;;;0.30;1.00;;;;;;4900471;29;20194;-95
2023/04/06 02:15:27;;;;;;;20.53;9.50;;;0.30;1.00;;;;;;4900059;29;20297;-95
2023/04/06 02:17:54;;;;;;;19.77;10.17;;;0.30;1.00;;;;;;4894625;29;20237;-96
2023/04/06 02:20:20;;;;;;;21.07;8.83;;;0.30;1.00;;;;;;4882205;29;20205;-96
2023/04/06 02:22:47;;;;;;;17.90;9.37;;;0.20;1.00;;;;;;4882035;29;20230;-94
2023/04/06 02:25:14;;;;;;;15.17;8.60;;;0.20;1.00;;;;;;4882574;29;20612;-94
2023/04/06 02:27:41;;;;;;;14.57;8.93;;;0.20;1.00;;;;;;4897111;29;20204;-94
2023/04/06 02:30:09;;;;;;;14.37;8.70;;;0.20;1.00;;;;;;4900368;29;20221;-95
2023/04/06 02:32:37;;;;;;;16.70;9.30;;;0.20;1.00;;;;;;4900341;29;20202;-96
2023/04/06 02:35:04;;;;;;;16.70;9.10;;;0.20;1.00;;;;;;4900037;29;20209;-95
2023/04/06 02:37:31;;;;;;;17.20;9.23;;;0.10;1.00;;;;;;4900263;29;20208;-93
2023/04/06 02:39:58;;;;;;;14.90;8.53;;;0.10;1.00;;;;;;4900261;29;20202;-96
2023/04/06 02:42:25;;;;;;;21.07;9.97;;;0.10;1.00;;;;;;4899940;29;20200;-95
2023/04/06 02:44:51;;;;;;;17.47;9.10;;;0.10;1.00;;;;;;4900332;29;20205;-94
2023/04/06 02:47:18;;;;;;;15.00;9.13;;;0.00;1.00;;;;;;4899897;29;20197;-94
2023/04/06 02:49:46;;;;;;;15.70;8.80;;;0.00;1.00;;;;;;4899836;29;20201;-94
2023/04/06 02:52:13;;;;;;;14.80;8.57;;;0.00;1.00;;;;;;4881401;29;20668;-95
2023/04/06 02:54:40;;;;;;;19.40;9.40;;;0.00;1.00;;;;;;4896353;29;20201;-95
2023/04/06 02:57:07;;;;;;;18.60;9.50;;;-0.10;1.00;;;;;;4900026;29;20205;-95
2023/04/06 02:59:33;;;;;;;14.57;8.87;;;0.00;1.00;;;;;;4900313;29;20205;-94
2023/04/06 03:02:00;;;;;;;16.53;8.77;;;0.00;1.00;;;;;;4899870;29;20205;-95
2023/04/06 03:04:27;;;;;;;14.93;8.37;;;0.00;1.00;;;;;;4899876;29;20218;-95
2023/04/06 03:06:55;;;;;;;15.03;8.30;;;0.00;1.00;;;;;;4899717;29;20200;-95
2023/04/06 03:09:22;;;;;;;15.87;8.80;;;0.00;1.00;;;;;;4899726;29;20206;-94
2023/04/06 03:11:49;;;;;;;14.27;8.73;;;0.00;1.00;;;;;;4886407;29;20199;-95
2023/04/06 03:14:17;;;;;;;20.33;8.63;;;0.00;1.00;;;;;;4881140;29;20207;-95
2023/04/06 03:16:43;;;;;;;13.67;8.77;;;0.10;1.00;;;;;;4882310;29;20309;-96
2023/04/06 03:19:11;;;;;;;13.47;8.57;;;0.10;1.00;;;;;;4899536;29;20638;-96
2023/04/06 03:21:38;;;;;;;16.70;8.87;;;0.20;1.00;;;;;;4899840;29;20210;-95
2023/04/06 03:24:07;;;;;;;15.43;8.37;;;0.30;1.00;;;;;;4899562;29;20754;-96
2023/04/06 03:26:35;;;;;;;13.53;7.63;;;0.30;1.00;;;;;;4898843;29;20198;-95
2023/04/06 03:29:01;;;;;;;13.40;7.87;;;0.40;1.00;;;;;;4900004;29;20256;-95
2023/04/06 03:31:28;;;;;;;14.80;8.13;;;0.40;1.00;;;;;;4900155;29;20201;-94
2023/04/06 03:33:55;;;;;;;15.40;8.00;;;0.40;1.00;;;;;;4899222;29;20198;-95
2023/04/06 03:36:22;;;;;;;17.40;7.93;;;0.40;1.00;;;;;;4899683;29;20228;-95
2023/04/06 03:38:48;;;;;;;13.53;8.27;;;0.40;1.00;;;;;;4899836;29;20206;-94
2023/04/06 03:41:17;;;;;;;17.57;8.60;;;0.40;1.00;;;;;;4899455;29;20227;-94
2023/04/06 03:43:44;;;;;;;15.47;8.50;;;0.50;1.00;;;;;;4898787;29;20222;-94
2023/04/06 03:46:11;;;;;;;13.57;8.27;;;0.50;1.00;;;;;;4899291;29;20209;-95
2023/04/06 03:48:38;;;;;;;17.77;8.70;;;0.50;1.00;;;;;;4899614;29;20202;-94
2023/04/06 03:51:05;;;;;;;13.70;8.67;;;0.50;1.00;;;;;;4899422;29;20194;-95
2023/04/06 03:53:32;;;;;;;15.70;8.80;;;0.60;1.00;;;;;;4899080;29;20203;-95
2023/04/06 03:55:58;;;;;;;16.57;9.33;;;0.60;1.00;;;;;;4899411;29;20206;-94
2023/04/06 03:58:26;;;;;;;16.33;9.00;;;0.60;1.00;;;;;;4899079;29;20202;-95
2023/04/06 04:00:53;;;;;;;17.93;9.13;;;0.70;1.00;;;;;;4899285;29;20206;-95
2023/04/06 04:03:21;;;;;;;15.40;8.60;;;0.70;1.00;;;;;;4898788;29;20222;-94
2023/04/06 04:05:48;;;;;;;21.03;9.53;;;0.70;1.00;;;;;;4899258;29;20206;-95
2023/04/06 04:08:15;;;;;;;15.20;9.37;;;0.60;1.00;;;;;;4899011;29;20206;-95
2023/04/06 04:10:41;;;;;;;16.00;9.57;;;0.60;1.00;;;;;;4899309;29;20207;-95
2023/04/06 04:13:08;;;;;;;19.20;9.57;;;0.60;1.00;;;;;;4899405;29;20202;-94
2023/04/06 04:15:37;;;;;;;16.23;9.50;;;0.70;1.00;;;;;;4898988;29;20203;-93
2023/04/06 04:18:04;;;;;;;22.03;9.97;;;0.70;1.00;;;;;;4898854;29;20206;-94
2023/04/06 04:20:30;;;;;;;18.97;10.07;;;0.70;1.00;;;;;;4899100;29;20202;-94
2023/04/06 04:22:57;;;;;;;19.17;10.60;;;0.70;1.00;;;;;;4899397;29;20208;-95
2023/04/06 04:25:24;;;;;;;16.57;10.00;;;0.70;1.00;;;;;;4898885;29;20663;-94
2023/04/06 04:27:51;;;;;;;19.20;10.27;;;0.70;1.00;;;;;;4898670;29;20202;-94
2023/04/06 04:30:18;;;;;;;19.93;10.63;;;0.80;1.00;;;;;;4895009;29;20206;-94
2023/04/06 04:32:46;;;;;;;18.97;9.93;;;0.70;1.00;;;;;;4898501;29;20296;-92
2023/04/06 04:35:13;;;;;;;18.77;10.73;;;0.80;1.00;;;;;;4883336;29;20198;-93
2023/04/06 04:37:42;;;;;;;21.27;10.17;;;0.80;1.00;;;;;;4899659;29;20198;-92
2023/04/06 04:40:10;;;;;;;16.63;10.13;;;0.80;8.80;;;;;;4902237;29;20202;-93
2023/04/06 04:42:37;;;;;;;16.57;9.57;;;0.90;9.00;;;;;;4904221;29;20206;-93
2023/04/06 04:45:04;;;;;;;24.67;11.20;;;1.00;4.40;;;;;;4902017;29;20218;-96
2023/04/06 04:47:31;;;;;;;20.97;10.43;;;1.00;1.40;;;;;;4901536;29;20207;-95
2023/04/06 04:49:59;;;;;;;19.03;10.70;;;1.20;1.40;;;;;;4902321;29;20202;-96
2023/04/06 04:52:25;;;;;;;21.83;11.43;;;1.30;1.00;;;;;;4902067;29;20207;-93
2023/04/06 04:54:52;;;;;;;18.27;11.20;;;1.40;1.00;;;;;;4901960;29;20202;-94
2023/04/06 04:57:19;;;;;;;22.57;11.80;;;1.50;1.00;;;;;;4901713;29;20211;-94
2023/04/06 04:59:46;;;;;;;21.77;11.73;;;1.60;1.00;;;;;;4901937;29;20656;-93
2023/04/06 05:02:13;;;;;;;28.03;13.43;;;1.70;1.00;;;;;;4902229;29;20214;-93
2023/04/06 05:04:39;;;;;;;24.03;12.93;;;1.90;1.00;;;;;;4901439;29;20227;-92
2023/04/06 05:07:08;;;;;;;24.50;12.43;;;2.00;1.00;;;;;;4893737;29;20273;-93
2023/04/06 05:09:35;;;;;;;21.27;10.90;;;2.10;1.00;;;;;;4901484;29;21755;-92
2023/04/06 05:12:02;;;;;;;23.93;11.40;;;2.20;1.00;;;;;;4901029;29;20197;-93
2023/04/06 05:14:29;;;;;;;21.37;11.50;;;2.30;1.00;;;;;;4902012;29;20574;-92
2023/04/06 05:16:56;;;;;;;18.00;10.97;;;2.40;1.00;;;;;;4901668;29;20241;-91
2023/04/06 05:19:23;;;;;;;20.93;11.30;;;2.50;1.00;;;;;;4901753;29;20207;-91
2023/04/06 05:21:50;;;;;;;17.73;10.67;;;2.60;1.00;;;;;;4901220;29;20668;-92
2023/04/06 05:24:18;;;;;;;21.87;11.63;;;2.60;1.00;;;;;;4901674;29;20216;-93
2023/04/06 05:26:45;;;;;;;24.87;12.77;;;2.70;1.00;;;;;;4901802;29;20201;-94
2023/04/06 05:29:11;;;;;;;29.23;14.43;;;2.80;1.00;;;;;;4885078;29;20201;-94
2023/04/06 05:31:38;;;;;;;19.67;11.73;;;2.90;1.00;;;;;;4901002;29;20207;-94
2023/04/06 05:34:05;;;;;;;26.13;12.07;;;3.00;1.00;;;;;;4890218;29;20199;-94
2023/04/06 05:36:32;;;;;;;20.43;11.17;;;3.00;1.00;;;;;;4889128;29;20313;-93
2023/04/06 05:38:59;;;;;;;20.27;10.90;;;3.00;1.00;;;;;;4889764;29;20324;-93
2023/04/06 05:41:27;;;;;;;17.83;10.60;;;3.00;1.00;;;;;;4887556;29;20202;-94
2023/04/06 05:43:54;;;;;;;19.17;10.63;;;2.90;1.00;;;;;;4885422;29;20224;-94
2023/04/06 05:46:21;;;;;;;22.37;11.97;;;3.00;1.00;;;;;;4888453;29;20204;-96
2023/04/06 05:48:47;;;;;;;20.00;10.57;;;3.00;1.00;;;;;;4889413;29;20574;-93
2023/04/06 05:51:14;;;;;;;22.50;11.13;;;3.00;1.00;;;;;;4893196;29;20695;-94
2023/04/06 05:53:41;;;;;;;20.33;11.33;;;2.90;1.00;;;;;;4900568;29;20687;-94
2023/04/06 05:56:08;;;;;;;18.17;10.97;;;2.90;1.00;;;;;;4899851;29;20205;-93
2023/04/06 05:58:36;;;;;;;20.60;11.40;;;2.80;1.00;;;;;;4886211;29;20281;-93
2023/04/06 06:01:04;;;;;;;19.27;11.57;;;2.80;1.00;;;;;;4889248;29;20206;-93
2023/04/06 06:03:31;;;;;;;21.47;11.90;;;2.80;1.00;;;;;;4889949;29;20290;-96
2023/04/06 06:06:01;;;;;;;22.50;11.53;;;2.90;1.00;;;;;;4891381;29;20218;-95
2023/04/06 06:08:28;;;;;;;19.73;10.90;;;3.00;1.00;;;;;;4899954;29;20201;-94
2023/04/06 06:10:55;;;;;;;22.33;11.67;;;3.10;1.00;;;;;;4884770;29;20547;-95
2023/04/06 06:13:22;;;;;;;18.93;11.00;;;3.20;1.00;;;;;;4887825;29;20198;-94
2023/04/06 06:15:51;;;;;;;23.50;11.37;;;3.30;1.00;;;;;;4889057;29;20257;-94
2023/04/06 06:18:17;;;;;;;21.00;11.70;;;3.40;1.00;;;;;;4893335;29;20564;-94
2023/04/06 06:20:44;;;;;;;19.67;11.80;;;3.50;1.00;;;;;;4900141;29;20205;-95
2023/04/06 06:23:11;;;;;;;24.77;11.97;;;3.60;1.00;;;;;;4899847;29;20734;-95
2023/04/06 06:25:38;;;;;;;22.30;12.27;;;3.60;1.00;;;;;;4899912;29;20777;-94
2023/04/06 06:28:05;;;;;;;20.70;11.27;;;3.70;1.00;;;;;;4899726;29;20202;-94
2023/04/06 06:30:32;;;;;;;22.13;12.93;;;3.80;1.00;;;;;;4893210;29;20199;-94
2023/04/06 06:33:00;;;;;;;23.77;14.23;;;3.80;1.00;;;;;;4888934;29;20202;-95
2023/04/06 06:35:27;;;;;;;24.20;13.83;;;3.90;1.00;;;;;;4888586;29;20210;-92
2023/04/06 06:37:53;;;;;;;24.53;14.13;;;4.10;1.00;;;;;;4890609;29;20202;-93
2023/04/06 06:40:23;;;;;;;29.00;15.60;;;4.10;1.00;;;;;;4888739;29;20198;-93
2023/04/06 06:42:50;;;;;;;25.37;14.50;;;4.10;1.00;;;;;;4893418;29;20298;-93
2023/04/06 06:45:17;;;;;;;23.87;14.00;;;4.20;1.00;;;;;;4890461;29;20233;-94
2023/04/06 06:47:44;;;;;;;23.33;13.93;;;4.30;1.00;;;;;;4892453;29;20209;-94
2023/04/06 06:50:12;;;;;;;28.47;16.23;;;4.40;1.00;;;;;;4890643;29;20206;-93
2023/04/06 06:52:40;;;;;;;30.47;18.30;;;4.40;1.00;;;;;;4889135;29;20670;-93
2023/04/06 06:55:07;;;;;;;28.13;15.73;;;4.40;1.00;;;;;;4887825;29;20659;-93
2023/04/06 06:57:34;;;;;;;25.80;15.23;;;4.40;1.00;;;;;;4890837;29;20198;-94
2023/04/06 07:00:01;;;;;;;31.80;17.63;;;4.40;1.00;;;;;;4890009;29;20202;-94
2023/04/06 07:02:28;;;;;;;23.93;15.20;;;4.50;1.00;;;;;;4892276;29;20205;-94
2023/04/06 07:04:54;;;;;;;29.93;16.17;;;4.50;1.00;;;;;;4889378;29;20225;-95
2023/04/06 07:07:23;;;;;;;23.13;14.90;;;4.50;1.00;;;;;;4890600;29;20209;-95
2023/04/06 07:09:49;;;;;;;29.93;16.40;;;4.50;1.00;;;;;;4889093;29;20282;-93
2023/04/06 07:12:16;;;;;;;24.30;14.17;;;4.60;1.00;;;;;;4891059;29;20209;-94
2023/04/06 07:14:43;;;;;;;28.37;15.93;;;4.60;1.00;;;;;;4889708;29;20198;-95
2023/04/06 07:17:10;;;;;;;27.43;16.40;;;4.70;1.00;;;;;;4888794;29;20244;-94
2023/04/06 07:19:37;;;;;;;26.90;17.60;;;4.80;1.00;;;;;;4889629;29;20211;-94
2023/04/06 07:22:04;;;;;;;34.97;21.27;;;4.90;1.00;;;;;;4889425;29;20564;-96
2023/04/06 07:24:32;;;;;;;29.80;19.57;;;5.00;1.00;;;;;;4889469;29;20225;-94
2023/04/06 07:27:00;;;;;;;32.13;17.37;;;5.10;1.00;;;;;;4886300;29;20198;-93
2023/04/06 07:29:27;;;;;;;27.97;16.47;;;5.30;1.00;;;;;;4889876;29;20293;-94
2023/04/06 07:31:53;;;;;;;25.33;14.37;;;5.40;1.00;;;;;;4886927;29;20205;-93
2023/04/06 07:34:20;;;;;;;30.90;15.63;;;5.50;1.00;;;;;;4887942;29;20206;-94
2023/04/06 07:36:47;;;;;;;36.03;17.30;;;5.60;1.00;;;;;;4889649;29;20207;-95
2023/04/06 07:39:14;;;;;;;26.23;13.73;;;5.60;1.00;;;;;;4891860;29;20210;-94
2023/04/06 07:41:42;;;;;;;21.07;13.83;;;5.60;1.00;;;;;;4889897;29;20205;-93
2023/04/06 07:44:09;;;;;;;27.37;15.47;;;5.70;1.00;;;;;;4884757;29;20219;-95
2023/04/06 07:46:36;;;;;;;22.83;14.00;;;5.70;1.00;;;;;;4898681;29;20202;-95
2023/04/06 07:49:03;;;;;;;25.93;14.37;;;5.80;1.00;;;;;;4899207;29;20264;-94
2023/04/06 07:51:30;;;;;;;22.97;13.47;;;5.90;1.00;;;;;;4899188;29;20208;-94
2023/04/06 07:53:57;;;;;;;23.33;14.53;;;6.00;1.00;;;;;;4899398;29;20295;-94
2023/04/06 07:56:24;;;;;;;22.90;12.37;;;6.10;1.00;;;;;;4899412;29;20207;-93
2023/04/06 07:58:55;;;;;;;21.37;13.30;;;6.20;1.00;;;;;;4899570;29;20206;-94
2023/04/06 08:01:22;;;;;;;24.23;15.07;;;6.20;1.00;;;;;;4898903;29;20220;-95
2023/04/06 08:03:48;;;;;;;23.03;14.37;;;6.30;1.00;;;;;;4899462;29;20213;-92
2023/04/06 08:06:15;;;;;;;25.47;13.23;;;6.40;1.00;;;;;;4898853;29;20224;-93
2023/04/06 08:08:42;;;;;;;27.70;15.03;;;6.50;1.00;;;;;;4898828;29;20216;-94
2023/04/06 08:11:09;;;;;;;29.63;18.07;;;6.60;1.00;;;;;;4899299;29;20199;-93
2023/04/06 08:13:36;;;;;;;23.83;12.43;;;6.70;1.00;;;;;;4901361;29;20201;-93
2023/04/06 08:16:05;;;;;;;21.47;13.60;;;6.80;1.00;;;;;;4902267;29;20229;-93
2023/04/06 08:18:32;;;;;;;29.37;15.07;;;6.90;1.00;;;;;;4903414;29;20207;-93
2023/04/06 08:20:58;;;;;;;24.47;13.30;;;7.00;1.00;;;;;;4899738;29;20196;-93
2023/04/06 08:23:25;;;;;;;21.83;12.23;;;7.00;1.00;;;;;;4901763;29;20199;-95
2023/04/06 08:25:54;;;;;;;22.13;14.20;;;7.00;1.00;;;;;;4888164;29;20219;-94
2023/04/06 08:28:20;;;;;;;18.67;11.10;;;7.10;1.00;;;;;;4901449;29;20235;-94
2023/04/06 08:30:47;;;;;;;22.40;12.47;;;7.20;1.00;;;;;;4900579;29;20238;-96
2023/04/06 08:33:16;;;;;;;22.23;13.60;;;7.30;1.00;;;;;;4903271;29;20205;-94
2023/04/06 08:35:43;;;;;;;26.40;16.27;;;7.40;1.00;;;;;;4902180;29;20202;-94
2023/04/06 08:38:10;;;;;;;19.83;12.43;;;7.50;1.00;;;;;;4901500;29;20205;-95
2023/04/06 08:40:39;;;;;;;24.60;11.73;;;7.60;1.00;;;;;;4900335;29;20202;-94
2023/04/06 08:43:11;;;;;;;16.60;10.80;;;7.60;1.00;;;;;;4901825;29;20190;-96
2023/04/06 08:45:39;;;;;;;16.77;9.20;;;7.70;1.00;;;;;;4902685;29;20206;-94
2023/04/06 08:48:06;;;;;;;16.00;8.60;;;7.80;1.00;;;;;;4902287;29;20293;-95
2023/04/06 08:50:35;;;;;;;18.53;13.77;;;8.00;1.00;;;;;;4902795;29;20199;-95
2023/04/06 08:53:02;;;;;;;14.17;8.10;;;8.10;99.90;;;;;;4902348;29;20210;-94
2023/04/06 08:55:30;;;;;;;13.17;7.30;;;8.20;99.90;;;;;;4902015;29;20583;-95
2023/04/06 08:57:57;;;;;;;15.40;8.87;;;8.30;99.90;;;;;;4901508;29;20212;-94
2023/04/06 09:00:26;;;;;;;16.40;10.47;;;8.50;99.90;;;;;;4902459;29;20229;-95
2023/04/06 09:02:55;;;;;;;14.43;7.90;;;8.50;99.90;;;;;;4901821;29;20667;-95
2023/04/06 09:05:24;;;;;;;10.97;6.90;;;8.60;99.90;;;;;;4896904;29;20747;-96
2023/04/06 09:07:52;;;;;;;11.40;8.13;;;8.60;99.90;;;;;;4900573;29;20574;-94
2023/04/06 09:10:20;;;;;;;11.03;8.03;;;8.60;99.90;;;;;;4883358;29;20283;-94
2023/04/06 09:12:47;;;;;;;17.30;11.17;;;8.60;99.90;;;;;;4898484;29;20202;-94
2023/04/06 09:15:20;;;;;;;10.00;6.80;;;8.60;99.90;;;;;;4900336;29;20198;-94
2023/04/06 09:17:47;;;;;;;8.87;6.20;;;8.60;99.90;;;;;;4893016;29;20242;-94
2023/04/06 09:20:14;;;;;;;15.80;9.50;;;8.70;99.90;;;;;;4900128;29;20324;-96
2023/04/06 09:22:42;;;;;;;10.13;7.47;;;8.80;99.90;;;;;;4901354;29;20207;-94
2023/04/06 09:25:19;;;;;;;12.00;6.40;;;8.90;99.90;;;;;;4887329;29;20716;-94
2023/04/06 09:27:45;;;;;;;14.63;9.97;;;8.90;99.90;;;;;;4901545;29;20698;-95
2023/04/06 09:30:13;;;;;;;12.87;8.70;;;8.90;99.90;;;;;;4901502;29;20217;-95
2023/04/06 09:32:50;;;;;;;19.33;10.90;;;8.90;99.90;;;;;;4901218;29;20263;-94
2023/04/06 09:35:17;;;;;;;10.17;7.20;;;8.90;99.90;;;;;;4901184;29;20219;-93
2023/04/06 09:37:45;;;;;;;13.07;6.90;;;9.00;99.90;;;;;;4901719;29;20206;-95
2023/04/06 09:40:17;;;;;;;10.33;6.60;;;9.10;99.90;;;;;;4895666;29;20214;-93
2023/04/06 09:42:47;;;;;;;10.17;7.00;;;9.10;99.90;;;;;;4888288;29;20235;-94
2023/04/06 09:45:15;;;;;;;10.57;6.80;;;9.20;99.90;;;;;;4900872;29;20227;-94
2023/04/06 09:47:45;;;;;;;12.17;6.73;;;9.20;99.90;;;;;;4894308;29;20213;-94
2023/04/06 09:50:12;;;;;;;12.40;6.60;;;9.20;99.90;;;;;;4895907;29;20204;-95
2023/04/06 09:52:42;;;;;;;11.83;7.30;;;9.20;99.90;;;;;;4900846;29;20214;-95
2023/04/06 09:55:10;;;;;;;21.50;7.33;;;9.20;99.90;;;;;;4889525;29;20200;-95
2023/04/06 09:57:46;;;;;;;15.80;9.13;;;9.20;99.90;;;;;;4901032;29;20211;-94
2023/04/06 10:00:17;;;;;;;15.13;7.00;;;9.30;99.90;;;;;;4900816;29;20192;-95
2023/04/06 10:02:51;;;;;;;9.87;6.53;;;9.40;99.90;;;;;;4900836;29;20239;-93
2023/04/06 10:05:23;;;;;;;11.57;6.97;;;9.40;99.90;;;;;;4900843;29;20275;-95
2023/04/06 10:07:53;;;;;;;8.67;6.67;;;9.50;99.90;;;;;;4890544;29;20206;-95
2023/04/06 10:10:20;;;;;;;10.53;7.17;;;9.50;99.90;;;;;;4896366;29;20209;-95
2023/04/06 10:12:49;;;;;;;12.53;7.00;;;9.70;99.90;;;;;;4900833;29;20204;-94
2023/04/06 10:15:16;;;;;;;12.57;7.00;;;9.90;99.90;;;;;;4900682;29;20257;-94
2023/04/06 10:17:44;;;;;;;18.70;8.00;;;10.10;99.90;;;;;;4900831;29;20244;-95
2023/04/06 10:20:15;;;;;;;13.00;6.90;;;10.30;99.90;;;;;;4900859;29;20211;-93
2023/04/06 10:22:50;;;;;;;19.60;13.60;;;10.40;99.90;;;;;;4900645;29;20205;-94
2023/04/06 10:25:17;;;;;;;16.77;8.67;;;10.40;99.90;;;;;;4901279;29;20239;-94
2023/04/06 10:27:44;;;;;;;10.27;6.70;;;10.30;99.90;;;;;;4900346;29;20209;-93
2023/04/06 10:30:17;;;;;;;10.00;6.70;;;10.20;99.90;;;;;;4900350;29;20201;-95
2023/04/06 10:32:44;;;;;;;10.27;7.03;;;10.00;99.90;;;;;;4900526;29;20204;-95
2023/04/06 10:35:12;;;;;;;12.50;8.40;;;10.00;99.90;;;;;;4899853;29;20231;-93
2023/04/06 10:37:51;;;;;;;12.40;6.97;;;10.00;99.90;;;;;;4899796;29;20201;-95
2023/04/06 10:40:25;;;;;;;9.70;7.20;;;10.00;99.90;;;;;;4901008;29;20198;-94
2023/04/06 10:42:53;;;;;;;13.07;7.43;;;10.30;99.90;;;;;;4901126;29;20202;-93
2023/04/06 10:45:23;;;;;;;11.67;6.90;;;10.40;99.90;;;;;;4899633;29;20582;-94
2023/04/06 10:47:50;;;;;;;13.63;7.47;;;10.50;99.90;;;;;;4899946;29;20216;-95
2023/04/06 10:50:17;;;;;;;8.80;6.53;;;10.50;99.90;;;;;;4899675;29;20210;-93
2023/04/06 10:52:45;;;;;;;11.10;6.63;;;10.60;99.90;;;;;;4881200;29;20263;-94
2023/04/06 10:55:14;;;;;;;8.43;6.33;;;10.70;99.90;;;;;;4899413;29;20735;-93
2023/04/06 10:57:41;;;;;;;8.63;6.50;;;10.80;99.90;;;;;;4899398;29;20315;-94
2023/04/06 11:00:09;;;;;;;9.87;6.07;;;10.80;99.90;;;;;;4899250;29;20202;-93
2023/04/06 11:02:37;;;;;;;10.70;6.67;;;10.90;99.90;;;;;;4899314;29;20209;-93
2023/04/06 11:05:05;;;;;;;12.07;7.27;;;11.10;99.90;;;;;;4899640;29;20305;-94
2023/04/06 11:07:31;;;;;;;22.80;13.60;;;11.30;99.90;;;;;;4886298;29;20204;-93
2023/04/06 11:09:58;;;;;;;15.87;10.07;;;11.30;99.90;;;;;;4897043;29;20203;-93
2023/04/06 11:12:26;;;;;;;13.30;7.07;;;11.40;99.90;;;;;;4898848;29;20205;-94
2023/04/06 11:15:01;;;;;;;12.10;7.67;;;11.40;99.90;;;;;;4899341;29;20212;-93
2023/04/06 11:17:29;;;;;;;10.27;6.63;;;11.40;99.90;;;;;;4899406;29;20312;-93
2023/04/06 11:19:58;;;;;;;8.93;6.50;;;11.50;99.90;;;;;;4899138;29;20199;-94
2023/04/06 11:22:25;;;;;;;8.90;6.30;;;11.60;99.90;;;;;;4899296;29;20564;-93
2023/04/06 11:24:52;;;;;;;12.00;7.63;;;11.60;99.90;;;;;;4899441;29;20206;-93
2023/04/06 11:27:20;;;;;;;10.07;6.57;;;11.70;99.90;;;;;;4899015;29;20221;-93
2023/04/06 11:29:47;;;;;;;12.00;7.50;;;11.80;99.90;;;;;;4899061;29;20265;-94
2023/04/06 11:32:21;;;;;;;7.07;5.40;;;12.00;99.90;;;;;;4899463;29;20572;-93
2023/04/06 11:34:49;;;;;;;8.73;6.77;;;11.90;99.90;;;;;;4899561;29;20267;-93
2023/04/06 11:37:17;;;;;;;11.57;8.70;;;11.90;99.90;;;;;;4880540;29;20198;-93
2023/04/06 11:39:49;;;;;;;18.10;12.10;;;12.00;99.90;;;;;;4880581;29;20208;-92
2023/04/06 11:42:22;;;;;;;9.30;5.97;;;12.00;99.90;;;;;;4891249;29;20570;-92
2023/04/06 11:44:52;;;;;;;9.63;7.30;;;12.10;99.90;;;;;;4893397;29;20210;-93
2023/04/06 11:47:19;;;;;;;13.00;6.43;;;12.10;99.90;;;;;;4884698;29;20452;-93
2023/04/06 11:49:47;;;;;;;18.70;11.80;;;12.00;99.90;;;;;;4902989;29;20691;-93
2023/04/06 11:52:20;;;;;;;8.47;5.60;;;11.90;99.90;;;;;;4887558;29;20215;-93
2023/04/06 11:54:48;;;;;;;8.23;5.13;;;11.70;99.90;;;;;;4899274;29;20741;-91
2023/04/06 11:57:16;;;;;;;8.17;4.53;;;11.70;99.90;;;;;;4902442;29;20208;-92
2023/04/06 11:59:43;;;;;;;8.33;4.83;;;11.70;99.90;;;;;;4896037;29;20209;-95
2023/04/06 12:02:11;;;;;;;7.70;4.47;;;11.70;99.90;;;;;;4899646;29;20577;-93
2023/04/06 12:04:38;;;;;;;7.90;4.90;;;11.60;99.90;;;;;;4903153;29;20200;-95
2023/04/06 12:07:05;;;;;;;6.47;4.70;;;11.60;99.90;;;;;;4899717;29;20231;-92
2023/04/06 12:09:34;;;;;;;6.40;5.10;;;11.50;99.90;;;;;;4902516;29;20287;-92
2023/04/06 12:12:01;;;;;;;7.13;4.60;;;11.30;99.90;;;;;;4902425;29;20257;-94
2023/04/06 12:14:28;;;;;;;8.73;4.97;;;11.20;99.90;;;;;;4902831;29;20221;-93
2023/04/06 12:16:54;;;;;;;10.37;5.00;;;11.30;99.90;;;;;;4902640;29;20241;-94
2023/04/06 12:19:25;;;;;;;9.30;5.10;;;11.50;99.90;;;;;;4896392;29;20208;-94
2023/04/06 12:21:52;;;;;;;9.10;4.70;;;11.70;99.90;;;;;;4889402;29;20573;-92
2023/04/06 12:24:19;;;;;;;6.70;4.90;;;11.80;99.90;;;;;;4895083;29;20213;-93
2023/04/06 12:26:47;;;;;;;7.87;4.60;;;11.90;99.90;;;;;;4900515;29;20272;-93
2023/04/06 12:29:14;;;;;;;7.57;5.37;;;12.10;99.90;;;;;;4892297;29;20600;-92
2023/04/06 12:31:42;;;;;;;8.27;4.90;;;12.20;99.90;;;;;;4902197;29;20721;-93
2023/04/06 12:34:09;;;;;;;11.13;8.33;;;12.20;99.90;;;;;;4902790;29;20276;-92
2023/04/06 12:36:38;;;;;;;7.07;4.73;;;12.40;99.90;;;;;;4902017;29;20235;-93
2023/04/06 12:39:05;;;;;;;14.73;9.40;;;12.60;99.90;;;;;;4901698;29;20205;-92
2023/04/06 12:41:32;;;;;;;6.83;4.93;;;12.70;99.90;;;;;;4902135;29;20230;-92
2023/04/06 12:44:00;;;;;;;9.10;6.17;;;13.00;99.90;;;;;;4901864;29;20285;-93
2023/04/06 12:46:29;;;;;;;8.27;5.33;;;13.10;99.90;;;;;;4902425;29;20684;-94
2023/04/06 12:48:57;;;;;;;7.77;4.97;;;13.30;99.90;;;;;;4902623;29;20230;-93